Wales, AK

11:51 PM AKDT on October 25, 2014 (GMT -0800)
Tin City LRRS | Change Station
CLOSE
Current Station
Airport
Location: Tin City,
Elevation: 272 ft
Nearby Weather Stations
Active Advisory: High Surf Advisory

Elev 272 ft 65.56 °N, 167.92 °W | Updated 17 minutes ago

Light Rain Showers
Light Showers Rain
32 °F
Feels Like 20 °F
N
20
Wind Variable Wind from WSW

Today
High -- | Low -- °F
--% Chance of Precip.
Yesterday
High -- | Low -- °F
Precip. -- in
10:40 AM 7:09 PM
Waxing Crescent, 6% visible
Pressure 29.36 in
Visibility 8.0 miles
Clouds Mostly Cloudy 1100 ft
Overcast 4600 ft
Windchill 20 °F
Dew Point 30 °F
Humidity 93%
Rainfall 0.03 in
Snow Depth Not available.
UV 0 out of 12
Pollen Not available.
Air Quality Not available.
Flu Activity Local Activity
SPECI PATC 260734Z AUTO 25017KT 8SM -SHRA BKN011 OVC046 00/M01 A2935 RMK AO2 PK WND 21026/0722 WSHFT 0713 SLP942

More Conditions Fewer Conditions

Pressure 29.36 in
Visibility 8.0 miles
Clouds Mostly Cloudy 1100 ft
Overcast 4600 ft
Windchill 20 °F
Dew Point 30 °F
Humidity 93%
Rainfall 0.03 in
Snow Depth Not available.
UV 0 out of 12
Pollen Not available.
Air Quality Not available.
Flu Activity Local Activity
SPECI PATC 260734Z AUTO 25017KT 8SM -SHRA BKN011 OVC046 00/M01 A2935 RMK AO2 PK WND 21026/0722 WSHFT 0713 SLP942

More Conditions Fewer Conditions

10-Day Weather Forecast

Almanac

Astronomy

Oct. 25, 2014 Rise Set
Actual Time 10:40 AM AKDT 7:09 PM AKDT
Civil Twilight 9:46 AM AKDT 8:03 PM AKDT
Nautical Twilight 8:47 AM AKDT 9:02 PM AKDT
Astronomical Twilight 7:48 AM AKDT 10:00 PM AKDT
Moon 1:12 PM AKDT (10/25) 7:59 PM AKDT (10/25)
Length of Visible Light 10h 17m
Length of Day
8h 28m
Tomorrow will be 7m 1s shorter.
Waxing Crescent, 6% of the Moon is Illuminated
Oct 26
Waxing Crescent
Oct 30
First Quarter
Nov 6
Full
Nov 14
Last Quarter
Nov 22
New

Community

WunderPhotos

Upload Photos

1,765,115 photos uploaded!

Nearby

Snow Depth

Station Depth Elevation
Pargon Creek 0 in 300 ft
Rocky Point 2 in 500 ft
Gobblers Knob 2 in 2030 ft
Coldfoot 6 in 1040 ft
Atigun Pass 14 in 4800 ft

Earthquake Activity

City Distance Mag. Time & Date
No recent earthquake activity has been reported nearby.
Minimum magnitude displayed is 2.5.

Coastal Water Temperatures

Place Temperature
No Stations Reporting

Nearby Weather Stations